Flight Briefing for CPX413

Departure Arrival
Tulsa International Airport (KTUL)
Click to view FAA NOTAMS
Miami International Airport (KMIA)
Click to view FAA NOTAMS
Departure Time Arrival Time
N/A N/A
Aircraft Distance
B757-200SF 1016nm
Departure METAR Arrival METAR
KTUL 252253Z 02008KT 10SM OVC037 14/07 A3027 RMK AO2 SLP250 T01390072 KMIA 252253Z 12010KT 10SM FEW025 FEW042 FEW250 25/19 A3002 RMK AO2 SLP164 T02500194
Suggested Route
MAYJI FSM LIT SQS MEI ACORI BULZI NICKI Q81 ENDEW JUULI SSCOT5


View recent IFR Routes data
Notes



Charts and Procedures

Charts for KTUL
No chart available
Charts for KMIA
No chart available

Windy.com Weather Map